createdAt,value
2018-09-08T00:01:54.277Z,12.8
2018-09-08T00:07:18.756Z,12.8
2018-09-08T00:12:47.248Z,12.9
2018-09-08T00:18:20.760Z,12.9
2018-09-08T00:23:49.086Z,12.9
2018-09-08T00:29:17.724Z,12.9
2018-09-08T00:34:40.788Z,13
2018-09-08T00:40:14.258Z,13
2018-09-08T00:45:43.006Z,13
2018-09-08T00:51:06.619Z,13
2018-09-08T00:56:34.840Z,13
2018-09-08T01:02:04.019Z,12.9
2018-09-08T01:07:38.431Z,12.9
2018-09-08T01:13:07.866Z,12.9
2018-09-08T01:18:32.355Z,12.9
2018-09-08T01:24:00.865Z,12.9
2018-09-08T01:29:30.216Z,12.9
2018-09-08T01:35:04.631Z,12.9
2018-09-08T01:40:33.064Z,12.8
2018-09-08T01:46:01.493Z,12.8
2018-09-08T01:51:24.862Z,12.8
2018-09-08T01:56:53.256Z,12.8
2018-09-08T02:02:21.704Z,12.7
2018-09-08T02:07:51.166Z,12.7
2018-09-08T02:13:24.528Z,12.7
2018-09-08T02:18:53.861Z,12.6
2018-09-08T02:24:22.587Z,12.6
2018-09-08T02:29:45.645Z,12.6
2018-09-08T02:35:14.328Z,12.6
2018-09-08T02:40:42.425Z,12.6
2018-09-08T02:46:10.780Z,12.6
2018-09-08T02:51:39.242Z,12.6
2018-09-08T02:57:07.584Z,12.6
2018-09-08T03:02:36.043Z,12.6
2018-09-08T03:08:09.628Z,12.6
2018-09-08T03:13:32.718Z,12.6
2018-09-08T03:19:07.389Z,12.6
2018-09-08T03:24:31.543Z,12.5
2018-09-08T03:30:05.251Z,12.5
2018-09-08T03:35:33.279Z,12.5
2018-09-08T03:40:57.580Z,12.5
2018-09-08T03:46:26.947Z,12.4
2018-09-08T03:51:56.354Z,12.4
2018-09-08T03:57:30.700Z,12.4
2018-09-08T04:02:54.258Z,12.4
2018-09-08T04:08:22.468Z,12.4
2018-09-08T04:13:50.791Z,12.4
2018-09-08T04:19:25.091Z,12.4
2018-09-08T04:24:49.768Z,12.4
2018-09-08T04:30:22.789Z,12.4
2018-09-08T04:35:46.433Z,12.4
2018-09-08T04:41:15.513Z,12.4
2018-09-08T04:46:44.971Z,12.4
2018-09-08T04:52:13.696Z,12.4
2018-09-08T04:57:42.857Z,12.4
2018-09-08T05:03:16.005Z,12.4
2018-09-08T05:08:40.335Z,12.5
2018-09-08T05:14:09.729Z,12.6
2018-09-08T05:19:38.424Z,12.7
2018-09-08T05:25:07.482Z,12.7
2018-09-08T05:30:35.943Z,12.8
2018-09-08T05:36:04.372Z,12.9
2018-09-08T05:41:34.062Z,12.9
2018-09-08T05:47:02.245Z,12.9
2018-09-08T05:52:30.724Z,13
2018-09-08T05:57:59.144Z,13
2018-09-08T06:03:28.560Z,13
2018-09-08T06:08:57.285Z,13.1
2018-09-08T06:14:26.516Z,13.1
2018-09-08T06:19:55.943Z,13.2
2018-09-08T06:25:24.461Z,13.2
2018-09-08T06:30:52.931Z,13.2
2018-09-08T06:36:22.392Z,13.3
2018-09-08T06:41:50.832Z,13.3
2018-09-08T06:47:25.558Z,13.4
2018-09-08T06:52:48.905Z,13.4
2018-09-08T06:58:17.478Z,13.4
2018-09-08T07:03:52.444Z,13.4
2018-09-08T07:09:15.581Z,13.5
2018-09-08T07:14:48.725Z,13.5
2018-09-08T07:20:12.469Z,13.6
2018-09-08T07:25:41.719Z,13.6
2018-09-08T07:31:11.686Z,13.7
2018-09-08T07:36:39.730Z,13.7
2018-09-08T07:42:09.270Z,13.8
2018-09-08T07:47:37.823Z,13.9
2018-09-08T07:53:06.385Z,14
2018-09-08T07:58:35.158Z,14.1
2018-09-08T08:04:03.464Z,14.1
2018-09-08T08:09:33.020Z,14.1
2018-09-08T08:15:01.569Z,14.1
2018-09-08T08:20:31.257Z,14.1
2018-09-08T08:26:00.918Z,14.1
2018-09-08T08:31:29.234Z,14.2
2018-09-08T08:36:57.881Z,14.4
2018-09-08T08:42:26.455Z,14.5
2018-09-08T08:47:56.042Z,14.6
2018-09-08T08:53:24.883Z,14.6
2018-09-08T08:58:53.254Z,14.7
2018-09-08T09:04:21.785Z,14.7
2018-09-08T09:09:55.422Z,14.7
2018-09-08T09:15:20.322Z,14.7
2018-09-08T09:20:48.654Z,14.7
2018-09-08T09:26:18.216Z,14.7
2018-09-08T09:31:52.830Z,14.7
2018-09-08T09:37:16.434Z,14.7
2018-09-08T09:42:46.276Z,14.6
2018-09-08T09:48:14.599Z,14.5
2018-09-08T09:53:44.550Z,14.4
2018-09-08T09:59:17.739Z,14.4
2018-09-08T10:04:41.303Z,14.5
2018-09-08T10:10:15.170Z,14.6
2018-09-08T10:15:44.522Z,14.8
2018-09-08T10:21:09.221Z,14.8
2018-09-08T10:26:37.833Z,14.9
2018-09-08T10:32:07.500Z,15
2018-09-08T10:37:39.987Z,15
2018-09-08T10:43:04.820Z,15
2018-09-08T10:48:34.327Z,15.1
2018-09-08T10:54:03.091Z,15.1
2018-09-08T10:59:32.430Z,15.1
2018-09-08T11:05:01.049Z,15.2
2018-09-08T11:10:30.675Z,15.2
2018-09-08T11:16:00.299Z,15.3
2018-09-08T11:21:35.207Z,15.3
2018-09-08T11:26:58.847Z,15.3
2018-09-08T11:32:28.231Z,15.3
2018-09-08T11:38:01.941Z,15.3
2018-09-08T11:43:25.830Z,15.2
2018-09-08T11:48:54.071Z,15.2
2018-09-08T11:54:27.719Z,15.2
2018-09-08T11:59:57.822Z,15.2
2018-09-08T12:05:22.617Z,15.2
2018-09-08T12:10:51.845Z,15.2
2018-09-08T12:16:20.425Z,15.2
2018-09-08T12:21:48.809Z,15.2
2018-09-08T12:27:17.689Z,15.2
2018-09-08T12:38:17.133Z,15.2
2018-09-08T12:43:45.792Z,15.3
2018-09-08T12:49:14.908Z,15.3
2018-09-08T12:54:44.696Z,15.4
2018-09-08T13:00:19.474Z,15.4
2018-09-08T13:05:42.867Z,15.5
2018-09-08T13:11:11.488Z,15.5
2018-09-08T13:22:15.867Z,15.6
2018-09-08T13:27:40.720Z,15.6
2018-09-08T13:33:10.103Z,15.6
2018-09-08T13:38:39.730Z,15.6
2018-09-08T13:44:14.404Z,15.5
2018-09-08T13:49:38.345Z,15.5
2018-09-08T13:55:07.687Z,15.5
2018-09-08T14:00:41.362Z,15.6
2018-09-08T14:06:05.334Z,15.6
2018-09-08T14:11:39.926Z,15.7
2018-09-08T14:17:03.609Z,15.8
2018-09-08T14:22:32.023Z,15.9
2018-09-08T14:28:02.049Z,15.9
2018-09-08T14:33:30.380Z,15.8
2018-09-08T14:39:00.036Z,15.8
2018-09-08T14:44:29.786Z,15.7
2018-09-08T14:49:58.392Z,15.7
2018-09-08T14:55:27.321Z,15.7
2018-09-08T15:00:57.083Z,15.7
2018-09-08T15:11:55.950Z,15.7
2018-09-08T15:17:23.687Z,15.7
2018-09-08T15:22:58.367Z,15.7
2018-09-08T15:28:22.030Z,15.7
2018-09-08T15:33:50.942Z,15.8
2018-09-08T15:39:24.398Z,15.7
2018-09-08T15:44:48.344Z,15.7
2018-09-08T15:50:17.681Z,15.7
2018-09-08T15:55:51.636Z,15.7
2018-09-08T16:01:16.255Z,15.7
2018-09-08T16:06:50.646Z,15.6
2018-09-08T16:12:20.868Z,15.6
2018-09-08T16:17:45.307Z,15.5
2018-09-08T16:23:13.812Z,15.5
2018-09-08T16:28:48.355Z,15.5
2018-09-08T16:34:17.936Z,15.5
2018-09-08T16:39:47.613Z,15.5
2018-09-08T16:45:11.477Z,15.4
2018-09-08T16:50:40.137Z,15.4
2018-09-08T16:56:08.468Z,15.4
2018-09-08T17:01:42.124Z,15.4
2018-09-08T17:07:07.023Z,15.4
2018-09-08T17:12:36.401Z,15.4
2018-09-08T17:18:05.297Z,15.3
2018-09-08T17:23:33.912Z,15.3
2018-09-08T17:29:02.261Z,15.3
2018-09-08T17:34:30.907Z,15.3
2018-09-08T17:40:05.542Z,15.2
2018-09-08T17:45:29.094Z,15.2
2018-09-08T17:50:58.819Z,15.2
2018-09-08T17:56:27.401Z,15.2
2018-09-08T18:01:56.982Z,15.1
2018-09-08T18:07:26.741Z,15.1
2018-09-08T18:12:56.257Z,15
2018-09-08T18:18:24.808Z,15
2018-09-08T18:23:59.865Z,15
2018-09-08T18:29:23.280Z,15
2018-09-08T18:34:56.963Z,15
2018-09-08T18:40:21.302Z,14.9
2018-09-08T18:45:49.890Z,14.9
2018-09-08T18:51:23.816Z,14.8
2018-09-08T18:56:47.397Z,14.8
2018-09-08T19:02:16.787Z,14.8
2018-09-08T19:07:46.293Z,14.8
2018-09-08T19:13:21.237Z,14.7
2018-09-08T19:18:44.553Z,14.7
2018-09-08T19:24:14.146Z,14.7
2018-09-08T19:29:42.693Z,14.7
2018-09-08T19:35:16.335Z,14.6
2018-09-08T19:40:45.918Z,14.6
2018-09-08T19:46:14.916Z,14.6
2018-09-08T19:51:43.368Z,14.6
2018-09-08T19:57:06.913Z,14.5
2018-09-08T20:02:35.302Z,14.5
2018-09-08T20:08:09.158Z,14.5
2018-09-08T20:13:33.270Z,14.5
2018-09-08T20:19:01.021Z,14.5
2018-09-08T20:24:29.829Z,14.5
2018-09-08T20:29:58.173Z,14.5
2018-09-08T20:35:27.717Z,14.5
2018-09-08T20:41:01.359Z,14.5
2018-09-08T20:46:24.888Z,14.5
2018-09-08T20:51:54.758Z,14.5
2018-09-08T20:57:23.292Z,14.5
2018-09-08T21:02:52.632Z,14.4
2018-09-08T21:08:22.518Z,14.4
2018-09-08T21:13:55.814Z,14.4
2018-09-08T21:19:20.376Z,14.4
2018-09-08T21:24:49.909Z,14.3
2018-09-08T21:30:23.735Z,14.3
2018-09-08T21:35:47.215Z,14.3
2018-09-08T21:41:15.669Z,14.3
2018-09-08T21:46:49.067Z,14.3
2018-09-08T21:52:14.457Z,14.3
2018-09-08T21:57:41.190Z,14.3
2018-09-08T22:03:09.728Z,14.3
2018-09-08T22:08:38.525Z,14.2
2018-09-08T22:14:12.143Z,14.2
2018-09-08T22:19:40.377Z,14.2
2018-09-08T22:25:10.014Z,14.2
2018-09-08T22:30:33.452Z,14.2
2018-09-08T22:41:30.913Z,14.2
2018-09-08T22:47:00.212Z,14.2
2018-09-08T22:52:29.998Z,14.2
2018-09-08T22:57:57.224Z,14.3
2018-09-08T23:03:32.083Z,14.3
2018-09-08T23:08:55.386Z,14.3
2018-09-08T23:14:29.311Z,14.3
2018-09-08T23:19:53.765Z,14.3
2018-09-08T23:25:23.428Z,14.3
2018-09-08T23:30:56.627Z,14.3
2018-09-08T23:36:21.191Z,14.3
2018-09-08T23:41:55.002Z,14.3
2018-09-08T23:47:19.272Z,14.3
2018-09-08T23:52:49.134Z,14.3
2018-09-08T23:58:18.633Z,14.3
